sensor_id;sensor_type;location;lat;lon;timestamp;P1;durP1;ratioP1;P2;durP2;ratioP2
84852;SDS011;75109;47.440;19.310;2024-03-02T00:00:14;48.77;;;48.57;;
84852;SDS011;75109;47.440;19.310;2024-03-02T00:00:48;50.93;;;50.57;;
84852;SDS011;75109;47.440;19.310;2024-03-02T00:01:21;51.17;;;50.33;;
84852;SDS011;75109;47.440;19.310;2024-03-02T00:01:54;49.90;;;49.90;;
84852;SDS011;75109;47.440;19.310;2024-03-02T00:02:26;47.80;;;47.70;;
84852;SDS011;75109;47.440;19.310;2024-03-02T00:02:58;49.87;;;49.60;;
84852;SDS011;75109;47.440;19.310;2024-03-02T00:03:30;50.37;;;49.47;;
84852;SDS011;75109;47.440;19.310;2024-03-02T00:04:03;48.43;;;48.20;;
84852;SDS011;75109;47.440;19.310;2024-03-02T00:04:36;48.10;;;48.00;;
84852;SDS011;75109;47.440;19.310;2024-03-02T00:05:10;51.87;;;51.13;;
84852;SDS011;75109;47.440;19.310;2024-03-02T00:05:43;49.33;;;49.07;;
84852;SDS011;75109;47.440;19.310;2024-03-02T00:06:20;49.77;;;49.30;;
84852;SDS011;75109;47.440;19.310;2024-03-02T00:06:55;51.17;;;50.83;;
84852;SDS011;75109;47.440;19.310;2024-03-02T00:07:27;49.70;;;49.03;;
84852;SDS011;75109;47.440;19.310;2024-03-02T00:08:00;49.00;;;48.13;;
84852;SDS011;75109;47.440;19.310;2024-03-02T00:08:32;47.77;;;47.67;;
84852;SDS011;75109;47.440;19.310;2024-03-02T00:09:05;50.30;;;50.30;;
84852;SDS011;75109;47.440;19.310;2024-03-02T00:09:37;49.43;;;49.10;;
84852;SDS011;75109;47.440;19.310;2024-03-02T00:10:10;48.00;;;47.17;;
84852;SDS011;75109;47.440;19.310;2024-03-02T00:10:43;48.03;;;47.53;;
84852;SDS011;75109;47.440;19.310;2024-03-02T00:11:16;48.60;;;47.90;;
84852;SDS011;75109;47.440;19.310;2024-03-02T00:11:48;48.07;;;47.17;;
84852;SDS011;75109;47.440;19.310;2024-03-02T00:12:20;48.13;;;47.50;;
84852;SDS011;75109;47.440;19.310;2024-03-02T00:12:54;50.23;;;49.00;;
84852;SDS011;75109;47.440;19.310;2024-03-02T00:13:27;47.63;;;47.07;;
84852;SDS011;75109;47.440;19.310;2024-03-02T00:13:59;47.53;;;47.27;;
84852;SDS011;75109;47.440;19.310;2024-03-02T00:14:31;45.43;;;45.27;;
84852;SDS011;75109;47.440;19.310;2024-03-02T00:15:04;48.97;;;48.80;;
84852;SDS011;75109;47.440;19.310;2024-03-02T00:15:46;49.53;;;48.47;;
84852;SDS011;75109;47.440;19.310;2024-03-02T00:16:19;47.70;;;46.93;;
84852;SDS011;75109;47.440;19.310;2024-03-02T00:16:51;46.47;;;46.47;;
84852;SDS011;75109;47.440;19.310;2024-03-02T00:17:24;46.70;;;46.20;;
84852;SDS011;75109;47.440;19.310;2024-03-02T00:17:59;47.77;;;47.37;;
84852;SDS011;75109;47.440;19.310;2024-03-02T00:18:33;49.63;;;48.80;;
84852;SDS011;75109;47.440;19.310;2024-03-02T00:19:06;47.97;;;47.87;;
84852;SDS011;75109;47.440;19.310;2024-03-02T00:19:40;49.00;;;48.57;;
84852;SDS011;75109;47.440;19.310;2024-03-02T00:20:12;49.70;;;48.93;;
84852;SDS011;75109;47.440;19.310;2024-03-02T00:20:53;47.40;;;47.40;;
84852;SDS011;75109;47.440;19.310;2024-03-02T00:21:27;46.03;;;45.87;;
84852;SDS011;75109;47.440;19.310;2024-03-02T00:22:02;45.47;;;45.40;;
84852;SDS011;75109;47.440;19.310;2024-03-02T00:22:35;47.97;;;47.40;;
84852;SDS011;75109;47.440;19.310;2024-03-02T00:23:09;46.43;;;46.40;;
84852;SDS011;75109;47.440;19.310;2024-03-02T00:23:45;46.50;;;46.50;;
84852;SDS011;75109;47.440;19.310;2024-03-02T00:24:21;47.63;;;47.63;;
84852;SDS011;75109;47.440;19.310;2024-03-02T00:24:58;48.03;;;47.40;;
84852;SDS011;75109;47.440;19.310;2024-03-02T00:25:35;49.00;;;48.40;;
84852;SDS011;75109;47.440;19.310;2024-03-02T00:26:11;48.83;;;48.33;;
84852;SDS011;75109;47.440;19.310;2024-03-02T00:26:44;47.80;;;47.70;;
84852;SDS011;75109;47.440;19.310;2024-03-02T00:27:16;47.23;;;46.90;;
84852;SDS011;75109;47.440;19.310;2024-03-02T00:27:51;45.50;;;45.47;;
84852;SDS011;75109;47.440;19.310;2024-03-02T00:28:25;46.13;;;46.10;;
84852;SDS011;75109;47.440;19.310;2024-03-02T00:28:59;47.77;;;47.50;;
84852;SDS011;75109;47.440;19.310;2024-03-02T00:29:32;47.20;;;46.50;;
84852;SDS011;75109;47.440;19.310;2024-03-02T00:30:05;47.97;;;47.17;;
84852;SDS011;75109;47.440;19.310;2024-03-02T00:30:59;45.10;;;44.67;;
84852;SDS011;75109;47.440;19.310;2024-03-02T00:31:35;46.97;;;46.87;;
84852;SDS011;75109;47.440;19.310;2024-03-02T00:32:08;47.43;;;46.80;;
84852;SDS011;75109;47.440;19.310;2024-03-02T00:32:45;46.20;;;46.07;;
84852;SDS011;75109;47.440;19.310;2024-03-02T00:33:17;47.53;;;46.57;;
84852;SDS011;75109;47.440;19.310;2024-03-02T00:33:50;48.47;;;47.13;;
84852;SDS011;75109;47.440;19.310;2024-03-02T00:34:22;45.90;;;45.47;;
84852;SDS011;75109;47.440;19.310;2024-03-02T00:34:54;47.07;;;46.87;;
84852;SDS011;75109;47.440;19.310;2024-03-02T00:35:26;47.73;;;47.47;;
84852;SDS011;75109;47.440;19.310;2024-03-02T00:35:58;48.03;;;47.17;;
84852;SDS011;75109;47.440;19.310;2024-03-02T00:36:31;47.23;;;46.73;;
84852;SDS011;75109;47.440;19.310;2024-03-02T00:37:03;45.60;;;45.60;;
84852;SDS011;75109;47.440;19.310;2024-03-02T00:37:36;45.83;;;45.57;;
84852;SDS011;75109;47.440;19.310;2024-03-02T00:38:08;46.50;;;46.47;;
84852;SDS011;75109;47.440;19.310;2024-03-02T00:38:42;44.00;;;44.00;;
84852;SDS011;75109;47.440;19.310;2024-03-02T00:39:17;46.27;;;46.23;;
84852;SDS011;75109;47.440;19.310;2024-03-02T00:39:50;47.03;;;47.03;;
84852;SDS011;75109;47.440;19.310;2024-03-02T00:40:22;47.77;;;47.70;;
84852;SDS011;75109;47.440;19.310;2024-03-02T00:41:04;47.10;;;46.73;;
84852;SDS011;75109;47.440;19.310;2024-03-02T00:41:40;47.70;;;47.47;;
84852;SDS011;75109;47.440;19.310;2024-03-02T00:42:15;45.83;;;45.70;;
84852;SDS011;75109;47.440;19.310;2024-03-02T00:42:47;47.27;;;47.03;;
84852;SDS011;75109;47.440;19.310;2024-03-02T00:43:38;46.03;;;46.03;;
84852;SDS011;75109;47.440;19.310;2024-03-02T00:44:25;47.33;;;46.87;;
84852;SDS011;75109;47.440;19.310;2024-03-02T00:44:58;47.20;;;46.40;;
84852;SDS011;75109;47.440;19.310;2024-03-02T00:45:30;46.17;;;45.80;;
84852;SDS011;75109;47.440;19.310;2024-03-02T00:46:02;46.47;;;46.33;;
84852;SDS011;75109;47.440;19.310;2024-03-02T00:46:35;43.63;;;43.63;;
84852;SDS011;75109;47.440;19.310;2024-03-02T00:47:08;44.93;;;44.90;;
84852;SDS011;75109;47.440;19.310;2024-03-02T00:47:40;47.57;;;47.30;;
84852;SDS011;75109;47.440;19.310;2024-03-02T00:48:12;48.20;;;46.77;;
84852;SDS011;75109;47.440;19.310;2024-03-02T00:48:54;45.90;;;45.87;;
84852;SDS011;75109;47.440;19.310;2024-03-02T00:49:27;43.70;;;43.70;;
84852;SDS011;75109;47.440;19.310;2024-03-02T00:50:00;44.77;;;44.37;;
84852;SDS011;75109;47.440;19.310;2024-03-02T00:50:32;45.37;;;45.33;;
84852;SDS011;75109;47.440;19.310;2024-03-02T00:51:04;45.10;;;45.07;;
84852;SDS011;75109;47.440;19.310;2024-03-02T00:51:36;44.17;;;44.13;;
84852;SDS011;75109;47.440;19.310;2024-03-02T00:52:09;46.10;;;45.87;;
84852;SDS011;75109;47.440;19.310;2024-03-02T00:52:42;45.43;;;44.93;;
84852;SDS011;75109;47.440;19.310;2024-03-02T00:53:14;43.33;;;42.97;;
84852;SDS011;75109;47.440;19.310;2024-03-02T00:53:57;43.27;;;43.27;;
84852;SDS011;75109;47.440;19.310;2024-03-02T00:54:30;43.80;;;43.80;;
84852;SDS011;75109;47.440;19.310;2024-03-02T00:55:02;43.53;;;43.20;;
84852;SDS011;75109;47.440;19.310;2024-03-02T00:55:37;43.83;;;43.77;;
84852;SDS011;75109;47.440;19.310;2024-03-02T00:56:10;44.93;;;44.93;;
84852;SDS011;75109;47.440;19.310;2024-03-02T00:56:46;43.83;;;43.60;;
84852;SDS011;75109;47.440;19.310;2024-03-02T00:57:19;44.63;;;44.63;;
84852;SDS011;75109;47.440;19.310;2024-03-02T00:57:52;45.30;;;45.17;;
84852;SDS011;75109;47.440;19.310;2024-03-02T00:58:24;45.60;;;45.57;;
84852;SDS011;75109;47.440;19.310;2024-03-02T00:58:57;45.47;;;45.43;;
84852;SDS011;75109;47.440;19.310;2024-03-02T00:59:30;44.63;;;44.63;;
84852;SDS011;75109;47.440;19.310;2024-03-02T01:00:03;42.63;;;42.63;;
84852;SDS011;75109;47.440;19.310;2024-03-02T01:00:40;42.80;;;42.47;;
84852;SDS011;75109;47.440;19.310;2024-03-02T01:01:12;44.20;;;43.07;;
84852;SDS011;75109;47.440;19.310;2024-03-02T01:01:45;45.17;;;44.27;;
84852;SDS011;75109;47.440;19.310;2024-03-02T01:02:17;45.00;;;43.83;;
84852;SDS011;75109;47.440;19.310;2024-03-02T01:02:51;44.70;;;44.27;;
84852;SDS011;75109;47.440;19.310;2024-03-02T01:03:24;45.07;;;45.07;;
84852;SDS011;75109;47.440;19.310;2024-03-02T01:03:56;45.17;;;45.17;;
84852;SDS011;75109;47.440;19.310;2024-03-02T01:04:28;45.90;;;45.47;;
84852;SDS011;75109;47.440;19.310;2024-03-02T01:05:00;45.40;;;44.77;;
84852;SDS011;75109;47.440;19.310;2024-03-02T01:05:32;44.03;;;44.00;;
84852;SDS011;75109;47.440;19.310;2024-03-02T01:06:04;44.57;;;44.53;;
84852;SDS011;75109;47.440;19.310;2024-03-02T01:06:36;45.67;;;45.40;;
84852;SDS011;75109;47.440;19.310;2024-03-02T01:07:08;44.67;;;43.97;;
84852;SDS011;75109;47.440;19.310;2024-03-02T01:07:41;44.87;;;44.87;;
84852;SDS011;75109;47.440;19.310;2024-03-02T01:08:13;43.90;;;43.87;;
84852;SDS011;75109;47.440;19.310;2024-03-02T01:08:46;43.83;;;43.83;;
84852;SDS011;75109;47.440;19.310;2024-03-02T01:09:22;44.33;;;44.33;;
84852;SDS011;75109;47.440;19.310;2024-03-02T01:09:54;45.13;;;45.13;;
84852;SDS011;75109;47.440;19.310;2024-03-02T01:10:26;44.33;;;43.60;;
84852;SDS011;75109;47.440;19.310;2024-03-02T01:10:59;44.13;;;42.77;;
84852;SDS011;75109;47.440;19.310;2024-03-02T01:11:31;43.30;;;42.33;;
84852;SDS011;75109;47.440;19.310;2024-03-02T01:12:03;42.87;;;42.07;;
84852;SDS011;75109;47.440;19.310;2024-03-02T01:12:35;42.47;;;41.40;;
84852;SDS011;75109;47.440;19.310;2024-03-02T01:13:07;41.77;;;41.60;;
84852;SDS011;75109;47.440;19.310;2024-03-02T01:13:40;43.17;;;42.90;;
84852;SDS011;75109;47.440;19.310;2024-03-02T01:14:13;45.60;;;44.57;;
84852;SDS011;75109;47.440;19.310;2024-03-02T01:14:45;44.03;;;43.33;;
84852;SDS011;75109;47.440;19.310;2024-03-02T01:15:17;42.60;;;42.57;;
84852;SDS011;75109;47.440;19.310;2024-03-02T01:15:49;42.23;;;42.23;;
84852;SDS011;75109;47.440;19.310;2024-03-02T01:16:21;42.27;;;42.20;;
84852;SDS011;75109;47.440;19.310;2024-03-02T01:16:53;41.97;;;41.90;;
84852;SDS011;75109;47.440;19.310;2024-03-02T01:17:25;43.07;;;42.73;;
84852;SDS011;75109;47.440;19.310;2024-03-02T01:17:57;42.47;;;42.40;;
84852;SDS011;75109;47.440;19.310;2024-03-02T01:18:29;42.43;;;42.43;;
84852;SDS011;75109;47.440;19.310;2024-03-02T01:19:02;42.97;;;42.97;;
84852;SDS011;75109;47.440;19.310;2024-03-02T01:19:35;41.90;;;41.90;;
84852;SDS011;75109;47.440;19.310;2024-03-02T01:20:07;41.00;;;40.87;;
84852;SDS011;75109;47.440;19.310;2024-03-02T01:20:41;44.10;;;43.70;;
84852;SDS011;75109;47.440;19.310;2024-03-02T01:21:13;43.17;;;42.73;;
84852;SDS011;75109;47.440;19.310;2024-03-02T01:21:45;43.00;;;42.43;;
84852;SDS011;75109;47.440;19.310;2024-03-02T01:22:17;42.27;;;42.20;;
84852;SDS011;75109;47.440;19.310;2024-03-02T01:22:54;43.27;;;43.20;;
84852;SDS011;75109;47.440;19.310;2024-03-02T01:23:27;42.33;;;42.30;;
84852;SDS011;75109;47.440;19.310;2024-03-02T01:23:59;41.43;;;41.43;;
84852;SDS011;75109;47.440;19.310;2024-03-02T01:24:31;42.67;;;41.83;;
84852;SDS011;75109;47.440;19.310;2024-03-02T01:25:04;40.83;;;40.67;;
84852;SDS011;75109;47.440;19.310;2024-03-02T01:25:37;42.23;;;41.73;;
84852;SDS011;75109;47.440;19.310;2024-03-02T01:26:09;41.97;;;41.67;;
84852;SDS011;75109;47.440;19.310;2024-03-02T01:26:41;41.03;;;40.77;;
84852;SDS011;75109;47.440;19.310;2024-03-02T01:27:13;40.63;;;40.63;;
84852;SDS011;75109;47.440;19.310;2024-03-02T01:27:45;40.87;;;40.43;;
84852;SDS011;75109;47.440;19.310;2024-03-02T01:28:18;39.60;;;39.40;;
84852;SDS011;75109;47.440;19.310;2024-03-02T01:28:52;40.50;;;40.50;;
84852;SDS011;75109;47.440;19.310;2024-03-02T01:29:25;41.13;;;41.13;;
84852;SDS011;75109;47.440;19.310;2024-03-02T01:29:57;40.87;;;40.87;;
84852;SDS011;75109;47.440;19.310;2024-03-02T01:30:31;42.70;;;42.53;;
84852;SDS011;75109;47.440;19.310;2024-03-02T01:31:03;42.77;;;42.17;;
84852;SDS011;75109;47.440;19.310;2024-03-02T01:31:35;40.47;;;40.40;;
84852;SDS011;75109;47.440;19.310;2024-03-02T01:32:07;41.10;;;40.37;;
84852;SDS011;75109;47.440;19.310;2024-03-02T01:32:39;43.33;;;43.13;;
84852;SDS011;75109;47.440;19.310;2024-03-02T01:33:11;41.53;;;41.53;;
84852;SDS011;75109;47.440;19.310;2024-03-02T01:33:43;39.73;;;39.60;;
84852;SDS011;75109;47.440;19.310;2024-03-02T01:34:16;42.13;;;41.53;;
84852;SDS011;75109;47.440;19.310;2024-03-02T01:34:48;42.40;;;42.40;;
84852;SDS011;75109;47.440;19.310;2024-03-02T01:35:20;40.50;;;40.50;;
84852;SDS011;75109;47.440;19.310;2024-03-02T01:35:52;42.57;;;42.57;;
84852;SDS011;75109;47.440;19.310;2024-03-02T01:36:24;42.23;;;41.73;;
84852;SDS011;75109;47.440;19.310;2024-03-02T01:36:56;40.77;;;40.60;;
84852;SDS011;75109;47.440;19.310;2024-03-02T01:37:28;41.63;;;41.60;;
84852;SDS011;75109;47.440;19.310;2024-03-02T01:38:00;40.30;;;40.30;;
84852;SDS011;75109;47.440;19.310;2024-03-02T01:38:32;41.60;;;41.43;;
84852;SDS011;75109;47.440;19.310;2024-03-02T01:39:05;41.63;;;41.17;;
84852;SDS011;75109;47.440;19.310;2024-03-02T01:39:40;40.43;;;40.33;;
84852;SDS011;75109;47.440;19.310;2024-03-02T01:40:12;41.27;;;41.07;;
84852;SDS011;75109;47.440;19.310;2024-03-02T01:40:44;42.00;;;41.77;;
84852;SDS011;75109;47.440;19.310;2024-03-02T01:41:16;41.40;;;41.13;;
84852;SDS011;75109;47.440;19.310;2024-03-02T01:41:49;39.77;;;39.77;;
84852;SDS011;75109;47.440;19.310;2024-03-02T01:42:21;40.83;;;40.40;;
84852;SDS011;75109;47.440;19.310;2024-03-02T01:42:53;42.73;;;42.20;;
84852;SDS011;75109;47.440;19.310;2024-03-02T01:43:27;42.20;;;42.00;;
84852;SDS011;75109;47.440;19.310;2024-03-02T01:43:59;42.93;;;41.87;;
84852;SDS011;75109;47.440;19.310;2024-03-02T01:44:32;40.57;;;40.47;;
84852;SDS011;75109;47.440;19.310;2024-03-02T01:45:05;40.80;;;40.80;;
84852;SDS011;75109;47.440;19.310;2024-03-02T01:45:38;39.77;;;39.73;;
84852;SDS011;75109;47.440;19.310;2024-03-02T01:46:11;39.77;;;39.77;;
84852;SDS011;75109;47.440;19.310;2024-03-02T01:46:43;41.17;;;40.67;;
84852;SDS011;75109;47.440;19.310;2024-03-02T01:47:15;40.93;;;40.30;;
84852;SDS011;75109;47.440;19.310;2024-03-02T01:47:47;40.30;;;40.20;;
84852;SDS011;75109;47.440;19.310;2024-03-02T01:48:20;41.33;;;40.60;;
84852;SDS011;75109;47.440;19.310;2024-03-02T01:48:52;40.80;;;40.10;;
84852;SDS011;75109;47.440;19.310;2024-03-02T01:49:24;40.83;;;40.07;;
84852;SDS011;75109;47.440;19.310;2024-03-02T01:49:56;40.60;;;40.57;;
84852;SDS011;75109;47.440;19.310;2024-03-02T01:50:29;38.77;;;38.77;;
84852;SDS011;75109;47.440;19.310;2024-03-02T01:51:03;38.93;;;38.80;;
84852;SDS011;75109;47.440;19.310;2024-03-02T01:51:37;39.40;;;38.87;;
84852;SDS011;75109;47.440;19.310;2024-03-02T01:52:10;39.87;;;39.73;;
84852;SDS011;75109;47.440;19.310;2024-03-02T01:52:42;40.70;;;40.33;;
84852;SDS011;75109;47.440;19.310;2024-03-02T01:53:16;40.67;;;40.17;;
84852;SDS011;75109;47.440;19.310;2024-03-02T01:53:48;39.83;;;39.37;;
84852;SDS011;75109;47.440;19.310;2024-03-02T01:54:20;39.40;;;39.40;;
84852;SDS011;75109;47.440;19.310;2024-03-02T01:54:53;39.23;;;39.00;;
84852;SDS011;75109;47.440;19.310;2024-03-02T01:55:25;41.20;;;40.43;;
84852;SDS011;75109;47.440;19.310;2024-03-02T01:55:57;41.70;;;40.97;;
84852;SDS011;75109;47.440;19.310;2024-03-02T01:56:29;38.37;;;38.33;;
84852;SDS011;75109;47.440;19.310;2024-03-02T01:57:01;40.40;;;40.40;;
84852;SDS011;75109;47.440;19.310;2024-03-02T01:57:34;40.63;;;40.63;;
84852;SDS011;75109;47.440;19.310;2024-03-02T01:58:06;41.37;;;41.37;;
84852;SDS011;75109;47.440;19.310;2024-03-02T01:58:38;41.90;;;41.50;;
84852;SDS011;75109;47.440;19.310;2024-03-02T01:59:10;40.90;;;40.53;;
84852;SDS011;75109;47.440;19.310;2024-03-02T01:59:45;41.37;;;40.20;;
84852;SDS011;75109;47.440;19.310;2024-03-02T02:00:22;41.43;;;41.20;;
84852;SDS011;75109;47.440;19.310;2024-03-02T02:00:56;42.33;;;42.17;;
84852;SDS011;75109;47.440;19.310;2024-03-02T02:01:28;42.63;;;41.77;;
84852;SDS011;75109;47.440;19.310;2024-03-02T02:02:00;40.73;;;40.57;;
84852;SDS011;75109;47.440;19.310;2024-03-02T02:02:33;41.23;;;41.23;;
84852;SDS011;75109;47.440;19.310;2024-03-02T02:03:05;40.43;;;40.20;;
84852;SDS011;75109;47.440;19.310;2024-03-02T02:03:38;39.93;;;39.77;;
84852;SDS011;75109;47.440;19.310;2024-03-02T02:04:10;38.73;;;38.73;;
84852;SDS011;75109;47.440;19.310;2024-03-02T02:04:42;40.37;;;40.10;;
84852;SDS011;75109;47.440;19.310;2024-03-02T02:05:14;41.43;;;41.40;;
84852;SDS011;75109;47.440;19.310;2024-03-02T02:05:46;39.97;;;39.97;;
84852;SDS011;75109;47.440;19.310;2024-03-02T02:06:19;40.17;;;40.17;;
84852;SDS011;75109;47.440;19.310;2024-03-02T02:06:52;41.60;;;41.03;;
84852;SDS011;75109;47.440;19.310;2024-03-02T02:07:24;40.53;;;40.33;;
84852;SDS011;75109;47.440;19.310;2024-03-02T02:07:56;40.13;;;39.53;;
84852;SDS011;75109;47.440;19.310;2024-03-02T02:08:30;40.37;;;40.33;;
84852;SDS011;75109;47.440;19.310;2024-03-02T02:09:02;40.73;;;40.17;;
84852;SDS011;75109;47.440;19.310;2024-03-02T02:09:34;40.87;;;40.40;;
84852;SDS011;75109;47.440;19.310;2024-03-02T02:10:06;40.57;;;40.50;;
84852;SDS011;75109;47.440;19.310;2024-03-02T02:10:38;40.60;;;40.23;;
84852;SDS011;75109;47.440;19.310;2024-03-02T02:11:10;41.43;;;41.43;;
84852;SDS011;75109;47.440;19.310;2024-03-02T02:11:46;41.40;;;40.63;;
84852;SDS011;75109;47.440;19.310;2024-03-02T02:12:18;40.30;;;39.67;;
84852;SDS011;75109;47.440;19.310;2024-03-02T02:12:50;40.80;;;40.80;;
84852;SDS011;75109;47.440;19.310;2024-03-02T02:13:22;40.73;;;40.70;;
84852;SDS011;75109;47.440;19.310;2024-03-02T02:13:54;42.80;;;42.53;;
84852;SDS011;75109;47.440;19.310;2024-03-02T02:14:29;42.83;;;42.23;;
84852;SDS011;75109;47.440;19.310;2024-03-02T02:15:03;41.03;;;40.97;;
84852;SDS011;75109;47.440;19.310;2024-03-02T02:15:35;41.40;;;41.27;;
84852;SDS011;75109;47.440;19.310;2024-03-02T02:16:08;40.50;;;40.37;;
84852;SDS011;75109;47.440;19.310;2024-03-02T02:16:40;39.57;;;39.10;;
84852;SDS011;75109;47.440;19.310;2024-03-02T02:17:12;41.27;;;41.00;;
84852;SDS011;75109;47.440;19.310;2024-03-02T02:17:44;44.67;;;43.13;;
84852;SDS011;75109;47.440;19.310;2024-03-02T02:18:17;44.77;;;43.03;;
84852;SDS011;75109;47.440;19.310;2024-03-02T02:18:49;44.33;;;43.10;;
84852;SDS011;75109;47.440;19.310;2024-03-02T02:19:21;42.73;;;42.50;;
84852;SDS011;75109;47.440;19.310;2024-03-02T02:19:53;41.23;;;40.83;;
84852;SDS011;75109;47.440;19.310;2024-03-02T02:20:25;39.47;;;39.40;;
84852;SDS011;75109;47.440;19.310;2024-03-02T02:20:57;40.17;;;39.93;;
84852;SDS011;75109;47.440;19.310;2024-03-02T02:21:30;42.90;;;41.80;;
84852;SDS011;75109;47.440;19.310;2024-03-02T02:22:02;41.80;;;41.67;;
84852;SDS011;75109;47.440;19.310;2024-03-02T02:22:35;42.37;;;42.23;;
84852;SDS011;75109;47.440;19.310;2024-03-02T02:23:07;39.57;;;39.57;;
84852;SDS011;75109;47.440;19.310;2024-03-02T02:23:41;40.70;;;40.70;;
84852;SDS011;75109;47.440;19.310;2024-03-02T02:24:17;40.97;;;40.97;;
84852;SDS011;75109;47.440;19.310;2024-03-02T02:24:49;41.60;;;41.60;;
84852;SDS011;75109;47.440;19.310;2024-03-02T02:25:21;40.87;;;40.87;;
84852;SDS011;75109;47.440;19.310;2024-03-02T02:25:53;41.03;;;41.00;;
84852;SDS011;75109;47.440;19.310;2024-03-02T02:26:26;40.63;;;40.63;;
84852;SDS011;75109;47.440;19.310;2024-03-02T02:26:58;40.57;;;40.57;;
84852;SDS011;75109;47.440;19.310;2024-03-02T02:27:30;40.87;;;40.57;;
84852;SDS011;75109;47.440;19.310;2024-03-02T02:28:02;39.37;;;39.37;;
84852;SDS011;75109;47.440;19.310;2024-03-02T02:28:35;40.40;;;40.37;;
84852;SDS011;75109;47.440;19.310;2024-03-02T02:29:07;41.97;;;41.97;;
84852;SDS011;75109;47.440;19.310;2024-03-02T02:29:39;42.83;;;42.73;;
84852;SDS011;75109;47.440;19.310;2024-03-02T02:30:12;40.70;;;40.43;;
84852;SDS011;75109;47.440;19.310;2024-03-02T02:30:44;42.70;;;41.97;;
84852;SDS011;75109;47.440;19.310;2024-03-02T02:31:16;43.13;;;42.57;;
84852;SDS011;75109;47.440;19.310;2024-03-02T02:31:49;40.20;;;40.13;;
84852;SDS011;75109;47.440;19.310;2024-03-02T02:32:21;43.57;;;43.13;;
84852;SDS011;75109;47.440;19.310;2024-03-02T02:32:53;41.17;;;41.10;;
84852;SDS011;75109;47.440;19.310;2024-03-02T02:33:25;42.60;;;42.13;;
84852;SDS011;75109;47.440;19.310;2024-03-02T02:33:57;43.30;;;42.83;;
84852;SDS011;75109;47.440;19.310;2024-03-02T02:34:29;40.53;;;40.43;;
84852;SDS011;75109;47.440;19.310;2024-03-02T02:35:01;39.27;;;39.17;;
84852;SDS011;75109;47.440;19.310;2024-03-02T02:35:33;41.97;;;41.27;;
84852;SDS011;75109;47.440;19.310;2024-03-02T02:36:05;43.50;;;42.47;;
84852;SDS011;75109;47.440;19.310;2024-03-02T02:36:38;40.13;;;40.10;;
84852;SDS011;75109;47.440;19.310;2024-03-02T02:37:11;41.23;;;41.20;;
84852;SDS011;75109;47.440;19.310;2024-03-02T02:37:44;41.30;;;41.10;;
84852;SDS011;75109;47.440;19.310;2024-03-02T02:38:18;41.33;;;41.33;;
84852;SDS011;75109;47.440;19.310;2024-03-02T02:38:51;41.73;;;41.67;;
84852;SDS011;75109;47.440;19.310;2024-03-02T02:39:23;44.10;;;43.77;;
84852;SDS011;75109;47.440;19.310;2024-03-02T02:39:55;43.77;;;43.73;;
84852;SDS011;75109;47.440;19.310;2024-03-02T02:40:28;44.47;;;44.47;;
84852;SDS011;75109;47.440;19.310;2024-03-02T02:41:02;42.13;;;42.10;;
84852;SDS011;75109;47.440;19.310;2024-03-02T02:41:34;42.57;;;42.57;;
84852;SDS011;75109;47.440;19.310;2024-03-02T02:42:06;43.93;;;43.63;;
84852;SDS011;75109;47.440;19.310;2024-03-02T02:42:38;41.73;;;41.67;;
84852;SDS011;75109;47.440;19.310;2024-03-02T02:43:11;41.63;;;41.63;;
84852;SDS011;75109;47.440;19.310;2024-03-02T02:43:43;42.37;;;42.30;;
84852;SDS011;75109;47.440;19.310;2024-03-02T02:44:15;42.87;;;42.40;;
84852;SDS011;75109;47.440;19.310;2024-03-02T02:44:47;42.60;;;42.17;;
84852;SDS011;75109;47.440;19.310;2024-03-02T02:45:19;43.07;;;42.47;;
84852;SDS011;75109;47.440;19.310;2024-03-02T02:45:51;41.67;;;41.13;;
84852;SDS011;75109;47.440;19.310;2024-03-02T02:46:24;41.97;;;41.73;;
84852;SDS011;75109;47.440;19.310;2024-03-02T02:46:56;41.63;;;41.03;;
84852;SDS011;75109;47.440;19.310;2024-03-02T02:47:28;41.80;;;41.07;;
84852;SDS011;75109;47.440;19.310;2024-03-02T02:48:01;40.13;;;39.80;;
84852;SDS011;75109;47.440;19.310;2024-03-02T02:48:34;41.70;;;41.50;;
84852;SDS011;75109;47.440;19.310;2024-03-02T02:49:06;41.67;;;41.63;;
84852;SDS011;75109;47.440;19.310;2024-03-02T02:49:39;41.27;;;40.93;;
84852;SDS011;75109;47.440;19.310;2024-03-02T02:50:11;41.17;;;41.13;;
84852;SDS011;75109;47.440;19.310;2024-03-02T02:50:43;40.10;;;40.10;;
84852;SDS011;75109;47.440;19.310;2024-03-02T02:51:16;41.00;;;40.93;;
84852;SDS011;75109;47.440;19.310;2024-03-02T02:51:50;42.63;;;42.40;;
84852;SDS011;75109;47.440;19.310;2024-03-02T02:52:22;41.73;;;41.33;;
84852;SDS011;75109;47.440;19.310;2024-03-02T02:52:54;41.43;;;40.90;;
84852;SDS011;75109;47.440;19.310;2024-03-02T02:53:26;41.47;;;41.43;;
84852;SDS011;75109;47.440;19.310;2024-03-02T02:53:58;40.87;;;40.80;;
84852;SDS011;75109;47.440;19.310;2024-03-02T02:54:30;43.97;;;43.87;;
84852;SDS011;75109;47.440;19.310;2024-03-02T02:55:06;43.13;;;43.13;;
84852;SDS011;75109;47.440;19.310;2024-03-02T02:55:39;41.73;;;41.67;;
84852;SDS011;75109;47.440;19.310;2024-03-02T02:56:15;41.30;;;41.00;;
84852;SDS011;75109;47.440;19.310;2024-03-02T02:56:47;42.83;;;42.50;;
84852;SDS011;75109;47.440;19.310;2024-03-02T02:57:19;41.90;;;41.63;;
84852;SDS011;75109;47.440;19.310;2024-03-02T02:57:51;43.60;;;42.47;;
84852;SDS011;75109;47.440;19.310;2024-03-02T02:58:23;43.97;;;43.17;;
84852;SDS011;75109;47.440;19.310;2024-03-02T02:58:55;43.50;;;43.17;;
84852;SDS011;75109;47.440;19.310;2024-03-02T02:59:27;40.80;;;40.80;;
84852;SDS011;75109;47.440;19.310;2024-03-02T02:59:59;42.97;;;42.50;;
84852;SDS011;75109;47.440;19.310;2024-03-02T03:00:32;44.67;;;43.30;;
84852;SDS011;75109;47.440;19.310;2024-03-02T03:01:04;43.27;;;43.20;;
84852;SDS011;75109;47.440;19.310;2024-03-02T03:01:36;43.50;;;43.50;;
84852;SDS011;75109;47.440;19.310;2024-03-02T03:02:08;42.33;;;41.87;;
84852;SDS011;75109;47.440;19.310;2024-03-02T03:02:41;42.80;;;42.77;;
84852;SDS011;75109;47.440;19.310;2024-03-02T03:03:13;43.37;;;43.37;;
84852;SDS011;75109;47.440;19.310;2024-03-02T03:03:46;42.97;;;42.87;;
84852;SDS011;75109;47.440;19.310;2024-03-02T03:04:18;42.30;;;42.27;;
84852;SDS011;75109;47.440;19.310;2024-03-02T03:04:50;41.97;;;41.90;;
84852;SDS011;75109;47.440;19.310;2024-03-02T03:05:22;41.37;;;41.37;;
84852;SDS011;75109;47.440;19.310;2024-03-02T03:05:54;42.57;;;42.57;;
84852;SDS011;75109;47.440;19.310;2024-03-02T03:06:26;42.37;;;42.10;;
84852;SDS011;75109;47.440;19.310;2024-03-02T03:06:59;42.97;;;42.70;;
84852;SDS011;75109;47.440;19.310;2024-03-02T03:07:32;42.17;;;41.90;;
84852;SDS011;75109;47.440;19.310;2024-03-02T03:08:08;41.83;;;41.43;;
84852;SDS011;75109;47.440;19.310;2024-03-02T03:08:40;41.53;;;41.33;;
84852;SDS011;75109;47.440;19.310;2024-03-02T03:09:12;41.80;;;41.67;;
84852;SDS011;75109;47.440;19.310;2024-03-02T03:09:44;42.33;;;42.30;;
84852;SDS011;75109;47.440;19.310;2024-03-02T03:10:16;41.37;;;41.27;;